createdAt,value
2023-02-02T00:00:39.920Z,1005.04
2023-02-02T00:01:39.909Z,1005.11
2023-02-02T00:02:39.904Z,1005.07
2023-02-02T00:03:39.892Z,1005.06
2023-02-02T00:04:39.881Z,1005.08
2023-02-02T00:05:39.889Z,1005.1
2023-02-02T00:06:39.858Z,1005.12
2023-02-02T00:07:39.849Z,1005.08
2023-02-02T00:08:39.842Z,1005.07
2023-02-02T00:09:39.829Z,1005.07
2023-02-02T00:10:39.815Z,1005.03
2023-02-02T00:11:39.804Z,1005.03
2023-02-02T00:12:39.797Z,1005.06
2023-02-02T00:13:39.782Z,1005.12
2023-02-02T00:14:39.772Z,1005.11
2023-02-02T00:15:39.766Z,1005.12
2023-02-02T00:16:39.752Z,1005.15
2023-02-02T00:17:39.741Z,1005.14
2023-02-02T00:18:39.736Z,1005.21
2023-02-02T00:19:39.729Z,1005.23
2023-02-02T00:20:39.710Z,1005.16
2023-02-02T00:21:39.704Z,1005.22
2023-02-02T00:22:39.697Z,1005.21
2023-02-02T00:23:39.682Z,1005.24
2023-02-02T00:24:39.672Z,1005.29
2023-02-02T00:25:39.661Z,1005.24
2023-02-02T00:26:39.650Z,1005.27
2023-02-02T00:27:39.640Z,1005.22
2023-02-02T00:28:39.630Z,1005.26
2023-02-02T00:29:39.620Z,1005.19
2023-02-02T00:30:39.612Z,1005.27
2023-02-02T00:31:39.599Z,1005.25
2023-02-02T00:32:39.589Z,1005.33
2023-02-02T00:33:39.578Z,1005.28
2023-02-02T00:34:39.564Z,1005.22
2023-02-02T00:35:39.559Z,1005.25
2023-02-02T00:36:39.552Z,1005.26
2023-02-02T00:37:39.538Z,1005.24
2023-02-02T00:38:39.530Z,1005.26
2023-02-02T00:39:39.513Z,1005.21
2023-02-02T00:40:39.508Z,1005.18
2023-02-02T00:41:39.497Z,1005.28
2023-02-02T00:42:39.491Z,1005.21
2023-02-02T00:43:39.474Z,1005.28
2023-02-02T00:44:39.462Z,1005.2
2023-02-02T00:45:39.452Z,1005.12
2023-02-02T00:46:39.442Z,1005.2
2023-02-02T00:47:39.440Z,1005.25
2023-02-02T00:48:39.425Z,1005.2
2023-02-02T00:49:39.416Z,1005.14
2023-02-02T00:50:39.401Z,1005.24
2023-02-02T00:51:39.401Z,1005.22
2023-02-02T00:52:39.382Z,1005.22
2023-02-02T00:53:39.373Z,1005.23
2023-02-02T00:54:39.367Z,1005.27
2023-02-02T00:55:39.350Z,1005.31
2023-02-02T00:56:39.342Z,1005.3
2023-02-02T00:57:39.330Z,1005.28
2023-02-02T00:58:39.328Z,1005.34
2023-02-02T00:59:39.315Z,1005.33
2023-02-02T01:00:39.299Z,1005.32
2023-02-02T01:01:39.292Z,1005.34
2023-02-02T01:02:39.282Z,1005.35
2023-02-02T01:03:39.267Z,1005.4
2023-02-02T01:04:39.255Z,1005.34
2023-02-02T01:05:39.251Z,1005.38
2023-02-02T01:06:39.235Z,1005.42
2023-02-02T01:07:39.226Z,1005.45
2023-02-02T01:08:39.213Z,1005.41
2023-02-02T01:09:39.204Z,1005.44
2023-02-02T01:10:39.191Z,1005.46
2023-02-02T01:11:39.190Z,1005.4
2023-02-02T01:12:39.174Z,1005.45
2023-02-02T01:13:39.167Z,1005.51
2023-02-02T01:14:39.153Z,1005.44
2023-02-02T01:15:39.140Z,1005.49
2023-02-02T01:16:39.130Z,1005.5
2023-02-02T01:17:39.134Z,1005.5
2023-02-02T01:18:39.108Z,1005.5
2023-02-02T01:19:39.098Z,1005.49
2023-02-02T01:20:39.087Z,1005.45
2023-02-02T01:21:39.081Z,1005.46
2023-02-02T01:22:39.071Z,1005.5
2023-02-02T01:23:39.059Z,1005.48
2023-02-02T01:24:39.046Z,1005.49
2023-02-02T01:25:39.037Z,1005.52
2023-02-02T01:26:39.023Z,1005.52
2023-02-02T01:27:39.012Z,1005.54
2023-02-02T01:28:39.016Z,1005.51
2023-02-02T01:29:38.996Z,1005.59
2023-02-02T01:30:38.979Z,1005.56
2023-02-02T01:31:38.969Z,1005.57
2023-02-02T01:32:38.971Z,1005.56
2023-02-02T01:33:38.950Z,1005.6
2023-02-02T01:34:38.940Z,1005.55
2023-02-02T01:35:38.928Z,1005.63
2023-02-02T01:36:38.917Z,1005.56
2023-02-02T01:37:38.910Z,1005.58
2023-02-02T01:38:38.897Z,1005.65
2023-02-02T01:39:38.891Z,1005.63
2023-02-02T01:40:38.871Z,1005.63
2023-02-02T01:41:38.865Z,1005.66
2023-02-02T01:42:38.851Z,1005.66
2023-02-02T01:43:38.842Z,1005.66
2023-02-02T01:44:38.835Z,1005.71
2023-02-02T01:45:38.820Z,1005.71
2023-02-02T01:46:38.811Z,1005.69
2023-02-02T01:47:38.798Z,1005.72
2023-02-02T01:48:38.790Z,1005.7
2023-02-02T01:49:38.773Z,1005.69
2023-02-02T01:50:38.775Z,1005.72
2023-02-02T01:51:38.753Z,1005.75
2023-02-02T01:52:38.748Z,1005.64
2023-02-02T01:53:38.734Z,1005.63
2023-02-02T01:54:38.724Z,1005.7
2023-02-02T01:55:38.712Z,1005.67
2023-02-02T01:56:38.707Z,1005.75
2023-02-02T01:57:38.698Z,1005.75
2023-02-02T01:58:38.678Z,1005.79
2023-02-02T01:59:38.681Z,1005.83
2023-02-02T02:00:38.663Z,1005.77
2023-02-02T02:01:38.646Z,1005.83
2023-02-02T02:02:38.637Z,1005.73
2023-02-02T02:03:46.235Z,1005.82
2023-02-02T02:04:38.635Z,1005.81
2023-02-02T02:05:38.625Z,1005.77
2023-02-02T02:06:38.597Z,1005.79
2023-02-02T02:07:38.729Z,1005.77
2023-02-02T02:08:38.588Z,1005.8
2023-02-02T02:09:38.565Z,1005.82
2023-02-02T02:10:38.556Z,1005.82
2023-02-02T02:11:38.544Z,1005.71
2023-02-02T02:12:38.536Z,1005.75
2023-02-02T02:13:38.521Z,1005.78
2023-02-02T02:14:38.520Z,1005.8
2023-02-02T02:15:38.506Z,1005.82
2023-02-02T02:16:38.500Z,1005.79
2023-02-02T02:17:38.484Z,1005.83
2023-02-02T02:18:38.467Z,1005.76
2023-02-02T02:19:38.479Z,1005.73
2023-02-02T02:20:38.459Z,1005.78
2023-02-02T02:21:38.437Z,1005.77
2023-02-02T02:22:38.441Z,1005.85
2023-02-02T02:23:38.422Z,1005.8
2023-02-02T02:24:38.407Z,1005.85
2023-02-02T02:25:38.414Z,1005.87
2023-02-02T02:26:38.401Z,1005.89
2023-02-02T02:27:38.375Z,1005.9
2023-02-02T02:28:38.368Z,1005.94
2023-02-02T02:29:38.357Z,1005.9
2023-02-02T02:30:38.346Z,1005.91
2023-02-02T02:31:38.356Z,1005.91
2023-02-02T02:32:38.320Z,1005.97
2023-02-02T02:33:38.308Z,1006.01
2023-02-02T02:34:38.308Z,1006.04
2023-02-02T02:35:38.289Z,1005.98
2023-02-02T02:36:38.283Z,1005.98
2023-02-02T02:37:38.301Z,1005.98
2023-02-02T02:38:38.273Z,1006.08
2023-02-02T02:39:38.249Z,1005.95
2023-02-02T02:40:38.236Z,1005.97
2023-02-02T02:41:38.231Z,1005.99
2023-02-02T02:42:38.250Z,1005.97
2023-02-02T02:43:38.212Z,1005.98
2023-02-02T02:44:38.213Z,1006.01
2023-02-02T02:45:38.191Z,1006.01
2023-02-02T02:46:38.180Z,1006.04
2023-02-02T02:47:38.168Z,1006.01
2023-02-02T02:48:38.166Z,1006.07
2023-02-02T02:49:38.180Z,1006.08
2023-02-02T02:50:38.145Z,1006.03
2023-02-02T02:51:38.128Z,1006.01
2023-02-02T02:52:38.120Z,1005.93
2023-02-02T02:53:38.100Z,1005.93
2023-02-02T02:54:38.105Z,1005.94
2023-02-02T02:55:38.102Z,1006.04
2023-02-02T02:56:38.070Z,1006.14
2023-02-02T02:57:38.075Z,1006.14
2023-02-02T02:58:38.067Z,1006.11
2023-02-02T02:59:38.042Z,1006.14
2023-02-02T03:00:38.033Z,1006.08
2023-02-02T03:01:38.039Z,1006.04
2023-02-02T03:02:38.014Z,1005.96
2023-02-02T03:03:38.002Z,1006.04
2023-02-02T03:04:38.018Z,1006.04
2023-02-02T03:05:37.981Z,1006.03
2023-02-02T03:06:37.982Z,1006.08
2023-02-02T03:07:37.974Z,1006.08
2023-02-02T03:08:37.972Z,1006.04
2023-02-02T03:09:37.936Z,1006.08
2023-02-02T03:10:37.927Z,1006.09
2023-02-02T03:11:37.926Z,1006.08
2023-02-02T03:12:37.911Z,1006.06
2023-02-02T03:13:37.921Z,1006.07
2023-02-02T03:14:37.882Z,1006.14
2023-02-02T03:15:37.875Z,1006.05
2023-02-02T03:16:37.874Z,1006.14
2023-02-02T03:17:37.858Z,1006.06
2023-02-02T03:18:37.854Z,1006.04
2023-02-02T03:19:37.841Z,1006.06
2023-02-02T03:20:37.823Z,1006.06
2023-02-02T03:21:37.818Z,1006.07
2023-02-02T03:22:37.805Z,1006.09
2023-02-02T03:23:37.795Z,1006.07
2023-02-02T03:24:37.789Z,1006.12
2023-02-02T03:25:37.797Z,1006.04
2023-02-02T03:26:37.763Z,1006.06
2023-02-02T03:27:37.752Z,1006.04
2023-02-02T03:28:37.740Z,1006.1
2023-02-02T03:29:37.736Z,1006.1
2023-02-02T03:30:37.724Z,1005.98
2023-02-02T03:31:37.712Z,1005.98
2023-02-02T03:32:37.721Z,1005.98
2023-02-02T03:33:37.713Z,1006.04
2023-02-02T03:34:37.683Z,1006.08
2023-02-02T03:35:37.668Z,1006.05
2023-02-02T03:36:37.666Z,1006.16
2023-02-02T03:37:37.663Z,1006.08
2023-02-02T03:38:37.647Z,1006.07
2023-02-02T03:39:37.652Z,1006.15
2023-02-02T03:40:37.619Z,1006.14
2023-02-02T03:41:37.616Z,1006.2
2023-02-02T03:42:37.602Z,1006.19
2023-02-02T03:43:37.606Z,1006.12
2023-02-02T03:44:37.578Z,1006.16
2023-02-02T03:45:37.576Z,1006.21
2023-02-02T03:46:37.554Z,1006.17
2023-02-02T03:47:37.547Z,1006.18
2023-02-02T03:48:37.537Z,1006.14
2023-02-02T03:49:37.536Z,1006.08
2023-02-02T03:50:37.512Z,1006.11
2023-02-02T03:51:37.506Z,1006.22
2023-02-02T03:52:37.493Z,1006.22
2023-02-02T03:53:37.481Z,1006.22
2023-02-02T03:54:37.486Z,1006.22
2023-02-02T03:55:37.461Z,1006.13
2023-02-02T03:56:37.450Z,1006.2
2023-02-02T03:57:37.450Z,1006.27
2023-02-02T03:58:37.445Z,1006.24
2023-02-02T03:59:37.425Z,1006.18
2023-02-02T04:00:37.413Z,1006.16
2023-02-02T04:01:37.412Z,1006.1
2023-02-02T04:02:37.385Z,1006.23
2023-02-02T04:03:37.380Z,1006.29
2023-02-02T04:04:37.368Z,1006.22
2023-02-02T04:05:37.361Z,1006.21
2023-02-02T04:06:37.384Z,1006.24
2023-02-02T04:07:37.372Z,1006.22
2023-02-02T04:08:37.328Z,1006.27
2023-02-02T04:09:37.321Z,1006.3
2023-02-02T04:10:37.317Z,1006.25
2023-02-02T04:11:37.295Z,1006.31
2023-02-02T04:12:37.293Z,1006.3
2023-02-02T04:13:37.288Z,1006.31
2023-02-02T04:14:37.309Z,1006.32
2023-02-02T04:15:37.255Z,1006.45
2023-02-02T04:16:37.277Z,1006.31
2023-02-02T04:17:37.254Z,1006.32
2023-02-02T04:18:37.252Z,1006.3
2023-02-02T04:19:37.234Z,1006.3
2023-02-02T04:20:37.205Z,1006.26
2023-02-02T04:21:37.193Z,1006.33
2023-02-02T04:22:37.181Z,1006.32
2023-02-02T04:23:37.187Z,1006.35
2023-02-02T04:24:37.167Z,1006.33
2023-02-02T04:25:37.166Z,1006.31
2023-02-02T04:26:37.159Z,1006.39
2023-02-02T04:27:37.132Z,1006.37
2023-02-02T04:28:37.128Z,1006.44
2023-02-02T04:29:37.108Z,1006.4
2023-02-02T04:30:37.119Z,1006.38
2023-02-02T04:31:37.103Z,1006.44
2023-02-02T04:32:37.083Z,1006.38
2023-02-02T04:33:37.071Z,1006.36
2023-02-02T04:34:37.059Z,1006.41
2023-02-02T04:35:37.047Z,1006.44
2023-02-02T04:36:37.035Z,1006.4
2023-02-02T04:37:37.049Z,1006.38
2023-02-02T04:38:37.018Z,1006.41
2023-02-02T04:39:37.014Z,1006.45
2023-02-02T04:40:36.993Z,1006.47
2023-02-02T04:41:36.986Z,1006.43
2023-02-02T04:42:36.981Z,1006.42
2023-02-02T04:43:36.966Z,1006.46
2023-02-02T04:44:36.953Z,1006.42
2023-02-02T04:45:36.942Z,1006.48
2023-02-02T04:46:36.933Z,1006.44
2023-02-02T04:47:36.926Z,1006.48
2023-02-02T04:48:36.920Z,1006.45
2023-02-02T04:49:36.902Z,1006.45
2023-02-02T04:50:36.890Z,1006.45
2023-02-02T04:51:36.880Z,1006.51
2023-02-02T04:52:36.865Z,1006.5
2023-02-02T04:53:36.858Z,1006.47
2023-02-02T04:54:36.850Z,1006.46
2023-02-02T04:55:36.839Z,1006.37
2023-02-02T04:56:36.828Z,1006.42
2023-02-02T04:57:36.822Z,1006.43
2023-02-02T04:58:36.804Z,1006.41
2023-02-02T04:59:36.793Z,1006.44
2023-02-02T05:00:36.787Z,1006.43
2023-02-02T05:01:36.775Z,1006.43
2023-02-02T05:02:36.768Z,1006.42
2023-02-02T05:03:44.323Z,1006.43
2023-02-02T05:04:36.756Z,1006.41
2023-02-02T05:05:45.331Z,1006.45
2023-02-02T05:06:36.729Z,1006.42
2023-02-02T05:07:36.712Z,1006.38
2023-02-02T05:08:36.703Z,1006.44
2023-02-02T05:09:36.696Z,1006.42
2023-02-02T05:10:36.680Z,1006.49
2023-02-02T05:11:36.676Z,1006.43
2023-02-02T05:12:36.663Z,1006.48
2023-02-02T05:13:36.705Z,1006.46
2023-02-02T05:14:44.246Z,1006.44
2023-02-02T05:15:44.240Z,1006.43
2023-02-02T05:16:44.254Z,1006.47
2023-02-02T05:17:44.204Z,1006.49
2023-02-02T05:18:36.607Z,1006.51
2023-02-02T05:19:36.590Z,1006.46
2023-02-02T05:20:36.576Z,1006.46
2023-02-02T05:21:36.564Z,1006.51
2023-02-02T05:22:44.116Z,1006.5
2023-02-02T05:23:44.110Z,1006.45
2023-02-02T05:24:44.119Z,1006.46
2023-02-02T05:25:36.543Z,1006.49
2023-02-02T05:26:44.075Z,1006.48
2023-02-02T05:27:44.055Z,1006.53
2023-02-02T05:28:36.495Z,1006.52
2023-02-02T05:29:36.478Z,1006.54
2023-02-02T05:30:36.469Z,1006.51
2023-02-02T05:31:36.451Z,1006.54
2023-02-02T05:32:36.460Z,1006.59
2023-02-02T05:33:36.435Z,1006.55
2023-02-02T05:34:36.440Z,1006.55
2023-02-02T05:35:36.416Z,1006.52
2023-02-02T05:36:36.410Z,1006.51
2023-02-02T05:37:36.409Z,1006.53
2023-02-02T05:38:36.378Z,1006.5
2023-02-02T05:39:36.371Z,1006.51
2023-02-02T05:40:36.361Z,1006.53
2023-02-02T05:41:36.353Z,1006.54
2023-02-02T05:42:36.345Z,1006.56
2023-02-02T05:43:36.344Z,1006.56
2023-02-02T05:44:36.316Z,1006.53
2023-02-02T05:45:36.309Z,1006.54
2023-02-02T05:46:36.297Z,1006.57
2023-02-02T05:47:36.308Z,1006.58
2023-02-02T05:48:36.296Z,1006.56
2023-02-02T05:49:36.267Z,1006.57
2023-02-02T05:50:36.258Z,1006.59
2023-02-02T05:51:36.243Z,1006.63
2023-02-02T05:52:36.264Z,1006.59
2023-02-02T05:53:36.227Z,1006.61
2023-02-02T05:54:36.218Z,1006.67
2023-02-02T05:55:36.207Z,1006.63
2023-02-02T05:56:36.192Z,1006.58
2023-02-02T05:57:36.182Z,1006.6
2023-02-02T05:58:36.183Z,1006.62
2023-02-02T05:59:36.166Z,1006.68
2023-02-02T06:00:36.164Z,1006.68
2023-02-02T06:01:36.192Z,1006.64
2023-02-02T06:02:36.168Z,1006.66
2023-02-02T06:03:36.128Z,1006.64
2023-02-02T06:04:36.129Z,1006.61
2023-02-02T06:05:36.099Z,1006.62
2023-02-02T06:06:36.103Z,1006.68
2023-02-02T06:07:36.098Z,1006.73
2023-02-02T06:08:36.068Z,1006.7
2023-02-02T06:09:36.077Z,1006.72
2023-02-02T06:10:36.057Z,1006.73
2023-02-02T06:11:36.037Z,1006.79
2023-02-02T06:12:36.085Z,1006.73
2023-02-02T06:13:36.042Z,1006.73
2023-02-02T06:14:36.075Z,1006.82
2023-02-02T06:15:36.023Z,1006.82
2023-02-02T06:16:36.012Z,1006.8
2023-02-02T06:17:35.977Z,1006.82
2023-02-02T06:18:35.988Z,1006.82
2023-02-02T06:19:35.955Z,1006.8
2023-02-02T06:20:35.941Z,1006.78
2023-02-02T06:21:35.935Z,1006.88
2023-02-02T06:22:35.920Z,1006.95
2023-02-02T06:23:35.915Z,1006.94
2023-02-02T06:24:35.902Z,1006.92
2023-02-02T06:25:35.897Z,1006.89
2023-02-02T06:26:35.892Z,1006.85
2023-02-02T06:27:35.870Z,1006.93
2023-02-02T06:28:35.871Z,1006.89
2023-02-02T06:29:35.859Z,1007
2023-02-02T06:30:35.867Z,1007.05
2023-02-02T06:31:35.828Z,1007.03
2023-02-02T06:32:35.818Z,1007.09
2023-02-02T06:33:35.828Z,1007.02
2023-02-02T06:34:35.793Z,1007.07
2023-02-02T06:35:35.799Z,1007.03
2023-02-02T06:36:35.773Z,1007.07
2023-02-02T06:37:35.772Z,1007.07
2023-02-02T06:38:35.751Z,1007.06
2023-02-02T06:39:35.750Z,1006.99
2023-02-02T06:40:35.728Z,1007.07
2023-02-02T06:41:35.741Z,1007.07
2023-02-02T06:42:35.711Z,1007.17
2023-02-02T06:43:35.696Z,1007.15
2023-02-02T06:44:35.705Z,1007.1
2023-02-02T06:45:35.678Z,1007.15
2023-02-02T06:46:35.677Z,1007.16
2023-02-02T06:47:35.672Z,1007.2
2023-02-02T06:48:35.655Z,1007.17
2023-02-02T06:49:35.633Z,1007.18
2023-02-02T06:50:35.622Z,1007.22
2023-02-02T06:51:35.611Z,1007.21
2023-02-02T06:52:35.744Z,1007.22
2023-02-02T06:53:35.603Z,1007.25
2023-02-02T06:54:35.652Z,1007.27
2023-02-02T06:55:35.575Z,1007.23
2023-02-02T06:56:35.567Z,1007.22
2023-02-02T06:57:35.579Z,1007.28
2023-02-02T06:58:35.572Z,1007.29
2023-02-02T06:59:35.539Z,1007.26
2023-02-02T07:00:35.520Z,1007.32
2023-02-02T07:01:35.506Z,1007.3
2023-02-02T07:02:35.535Z,1007.34
2023-02-02T07:03:35.486Z,1007.31
2023-02-02T07:04:35.479Z,1007.33
2023-02-02T07:05:35.480Z,1007.35
2023-02-02T07:06:35.472Z,1007.35
2023-02-02T07:07:35.442Z,1007.27
2023-02-02T07:08:35.433Z,1007.33
2023-02-02T07:09:35.419Z,1007.34
2023-02-02T07:10:35.425Z,1007.41
2023-02-02T07:11:35.402Z,1007.4
2023-02-02T07:12:35.387Z,1007.44
2023-02-02T07:13:35.398Z,1007.46
2023-02-02T07:14:35.371Z,1007.49
2023-02-02T07:15:35.390Z,1007.44
2023-02-02T07:16:35.348Z,1007.4
2023-02-02T07:17:35.344Z,1007.44
2023-02-02T07:18:35.328Z,1007.49
2023-02-02T07:19:35.317Z,1007.44
2023-02-02T07:20:35.302Z,1007.48
2023-02-02T07:21:35.296Z,1007.49
2023-02-02T07:22:35.292Z,1007.51
2023-02-02T07:23:35.274Z,1007.42
2023-02-02T07:24:35.269Z,1007.45
2023-02-02T07:25:35.256Z,1007.5
2023-02-02T07:26:35.238Z,1007.52
2023-02-02T07:27:35.233Z,1007.56
2023-02-02T07:28:35.222Z,1007.52
2023-02-02T07:29:35.236Z,1007.52
2023-02-02T07:30:35.194Z,1007.53
2023-02-02T07:31:35.187Z,1007.49
2023-02-02T07:32:35.179Z,1007.55
2023-02-02T07:33:35.161Z,1007.53
2023-02-02T07:34:35.158Z,1007.51
2023-02-02T07:35:35.144Z,1007.55
2023-02-02T07:36:35.134Z,1007.5
2023-02-02T07:37:35.142Z,1007.56
2023-02-02T07:38:35.121Z,1007.56
2023-02-02T07:39:35.101Z,1007.6
2023-02-02T07:40:35.139Z,1007.6
2023-02-02T07:41:35.078Z,1007.6
2023-02-02T07:42:35.068Z,1007.61
2023-02-02T07:43:35.060Z,1007.65
2023-02-02T07:44:35.047Z,1007.63
2023-02-02T07:45:35.037Z,1007.63
2023-02-02T07:46:35.032Z,1007.66
2023-02-02T07:47:35.023Z,1007.66
2023-02-02T07:48:35.035Z,1007.66
2023-02-02T07:49:35.002Z,1007.67
2023-02-02T07:50:34.981Z,1007.69
2023-02-02T07:51:34.972Z,1007.63
2023-02-02T07:52:34.962Z,1007.7
2023-02-02T07:53:34.957Z,1007.65
2023-02-02T07:54:34.944Z,1007.69
2023-02-02T07:55:34.932Z,1007.68
2023-02-02T07:56:35.143Z,1007.74
2023-02-02T07:57:34.910Z,1007.73
2023-02-02T07:58:34.903Z,1007.74
2023-02-02T07:59:34.889Z,1007.76
2023-02-02T08:00:34.890Z,1007.73
2023-02-02T08:01:34.876Z,1007.72
2023-02-02T08:02:34.860Z,1007.76
2023-02-02T08:03:34.848Z,1007.75
2023-02-02T08:04:34.862Z,1007.8
2023-02-02T08:05:34.827Z,1007.82
2023-02-02T08:06:34.818Z,1007.78
2023-02-02T08:07:34.802Z,1007.85
2023-02-02T08:08:34.810Z,1007.89
2023-02-02T08:09:34.783Z,1007.89
2023-02-02T08:10:34.771Z,1007.92
2023-02-02T08:11:34.782Z,1007.93
2023-02-02T08:12:34.751Z,1007.93
2023-02-02T08:13:34.740Z,1007.93
2023-02-02T08:14:34.728Z,1007.98
2023-02-02T08:15:34.721Z,1007.98
2023-02-02T08:16:34.712Z,1008
2023-02-02T08:17:34.695Z,1008.1
2023-02-02T08:18:34.693Z,1008.03
2023-02-02T08:19:34.677Z,1008.04
2023-02-02T08:20:34.668Z,1008.05
2023-02-02T08:21:34.651Z,1008.05
2023-02-02T08:22:34.641Z,1008.09
2023-02-02T08:23:34.637Z,1008.12
2023-02-02T08:24:34.660Z,1008.13
2023-02-02T08:25:34.610Z,1008.15
2023-02-02T08:26:34.600Z,1008.11
2023-02-02T08:27:34.596Z,1008.14
2023-02-02T08:28:34.595Z,1008.14
2023-02-02T08:29:34.572Z,1008.13
2023-02-02T08:30:34.557Z,1008.15
2023-02-02T08:31:34.549Z,1008.16
2023-02-02T08:32:34.577Z,1008.18
2023-02-02T08:33:34.538Z,1008.19
2023-02-02T08:34:34.544Z,1008.18
2023-02-02T08:35:34.529Z,1008.15
2023-02-02T08:36:34.495Z,1008.19
2023-02-02T08:37:34.511Z,1008.21
2023-02-02T08:38:34.499Z,1008.24
2023-02-02T08:39:34.466Z,1008.28
2023-02-02T08:40:34.454Z,1008.29
2023-02-02T08:41:34.442Z,1008.29
2023-02-02T08:42:34.430Z,1008.3
2023-02-02T08:43:34.433Z,1008.34
2023-02-02T08:44:34.413Z,1008.27
2023-02-02T08:45:34.406Z,1008.3
2023-02-02T08:46:34.414Z,1008.31
2023-02-02T08:47:34.380Z,1008.31
2023-02-02T08:48:34.367Z,1008.41
2023-02-02T08:49:34.356Z,1008.39
2023-02-02T08:50:34.348Z,1008.37
2023-02-02T08:51:34.387Z,1008.43
2023-02-02T08:52:34.338Z,1008.39
2023-02-02T08:53:34.320Z,1008.42
2023-02-02T08:54:34.309Z,1008.44
2023-02-02T08:55:34.296Z,1008.42
2023-02-02T08:56:34.283Z,1008.42
2023-02-02T08:57:34.272Z,1008.4
2023-02-02T08:58:34.284Z,1008.4
2023-02-02T08:59:34.249Z,1008.48
2023-02-02T09:00:34.244Z,1008.46
2023-02-02T09:01:34.230Z,1008.51
2023-02-02T09:02:34.221Z,1008.53
2023-02-02T09:03:34.205Z,1008.55
2023-02-02T09:04:34.208Z,1008.51
2023-02-02T09:05:34.184Z,1008.57
2023-02-02T09:06:34.187Z,1008.51
2023-02-02T09:07:34.171Z,1008.58
2023-02-02T09:08:34.156Z,1008.57
2023-02-02T09:09:34.143Z,1008.59
2023-02-02T09:10:34.143Z,1008.63
2023-02-02T09:11:34.130Z,1008.66
2023-02-02T09:12:34.114Z,1008.62
2023-02-02T09:13:34.101Z,1008.64
2023-02-02T09:14:34.168Z,1008.62
2023-02-02T09:15:34.083Z,1008.66
2023-02-02T09:16:34.074Z,1008.64
2023-02-02T09:17:34.060Z,1008.75
2023-02-02T09:18:34.050Z,1008.67
2023-02-02T09:19:34.034Z,1008.67
2023-02-02T09:20:34.026Z,1008.74
2023-02-02T09:21:34.017Z,1008.73
2023-02-02T09:22:34.025Z,1008.73
2023-02-02T09:23:33.996Z,1008.75
2023-02-02T09:24:33.987Z,1008.68
2023-02-02T09:25:33.973Z,1008.78
2023-02-02T09:26:33.964Z,1008.77
2023-02-02T09:27:33.952Z,1008.82
2023-02-02T09:28:34.020Z,1008.84
2023-02-02T09:29:33.930Z,1008.75
2023-02-02T09:30:33.919Z,1008.77
2023-02-02T09:31:33.925Z,1008.8
2023-02-02T09:32:33.894Z,1008.78
2023-02-02T09:33:33.902Z,1008.87
2023-02-02T09:34:33.893Z,1008.86
2023-02-02T09:35:33.892Z,1008.81
2023-02-02T09:36:33.858Z,1008.81
2023-02-02T09:37:33.864Z,1008.83
2023-02-02T09:38:33.834Z,1008.84
2023-02-02T09:39:33.825Z,1008.85
2023-02-02T09:40:33.825Z,1008.86
2023-02-02T09:41:33.800Z,1008.83
2023-02-02T09:42:33.850Z,1008.89
2023-02-02T09:43:33.783Z,1008.91
2023-02-02T09:44:33.801Z,1008.95
2023-02-02T09:45:33.782Z,1008.86
2023-02-02T09:46:33.750Z,1008.91
2023-02-02T09:47:33.748Z,1008.92
2023-02-02T09:48:33.728Z,1008.99
2023-02-02T09:49:33.722Z,1008.95
2023-02-02T09:50:33.708Z,1009.02
2023-02-02T09:51:33.737Z,1008.96
2023-02-02T09:52:33.693Z,1009.03
2023-02-02T09:53:33.678Z,1009.06
2023-02-02T09:54:33.669Z,1009.08
2023-02-02T09:55:33.667Z,1009.07
2023-02-02T09:56:33.648Z,1009.04
2023-02-02T09:57:33.649Z,1009.1
2023-02-02T09:58:33.642Z,1009.15
2023-02-02T09:59:33.630Z,1009.1
2023-02-02T10:00:33.602Z,1009.07
2023-02-02T10:01:33.591Z,1009.03
2023-02-02T10:02:33.580Z,1009.11
2023-02-02T10:03:33.574Z,1009.09
2023-02-02T10:04:33.579Z,1009.17
2023-02-02T10:05:33.550Z,1009.18
2023-02-02T10:06:33.538Z,1009.15
2023-02-02T10:07:33.531Z,1009.23
2023-02-02T10:08:33.531Z,1009.2
2023-02-02T10:09:33.509Z,1009.13
2023-02-02T10:10:33.505Z,1009.14
2023-02-02T10:11:33.485Z,1009.19
2023-02-02T10:12:33.473Z,1009.2
2023-02-02T10:13:33.471Z,1009.11
2023-02-02T10:14:33.465Z,1009.18
2023-02-02T10:15:33.464Z,1009.2
2023-02-02T10:16:33.454Z,1009.25
2023-02-02T10:17:33.428Z,1009.28
2023-02-02T10:18:33.417Z,1009.24
2023-02-02T10:19:33.403Z,1009.22
2023-02-02T10:20:33.393Z,1009.18
2023-02-02T10:21:33.385Z,1009.24
2023-02-02T10:22:33.400Z,1009.23
2023-02-02T10:23:33.380Z,1009.2
2023-02-02T10:24:33.353Z,1009.21
2023-02-02T10:25:33.339Z,1009.24
2023-02-02T10:26:33.330Z,1009.26
2023-02-02T10:27:33.321Z,1009.21
2023-02-02T10:28:33.340Z,1009.25
2023-02-02T10:29:33.308Z,1009.22
2023-02-02T10:30:33.297Z,1009.26
2023-02-02T10:31:33.280Z,1009.28
2023-02-02T10:32:33.271Z,1009.32
2023-02-02T10:33:33.261Z,1009.26
2023-02-02T10:34:33.244Z,1009.23
2023-02-02T10:35:33.239Z,1009.26
2023-02-02T10:36:43.379Z,1009.32
2023-02-02T10:37:33.238Z,1009.31
2023-02-02T10:38:33.226Z,1009.39
2023-02-02T10:39:33.225Z,1009.33
2023-02-02T10:41:50.773Z,1009.35
2023-02-02T10:42:50.745Z,1009.48
2023-02-02T10:43:50.741Z,1009.37
2023-02-02T10:44:50.718Z,1009.37
2023-02-02T10:45:50.718Z,1009.39
2023-02-02T10:46:50.705Z,1009.4
2023-02-02T10:47:50.686Z,1009.39
2023-02-02T10:48:50.683Z,1009.38
2023-02-02T10:49:50.670Z,1009.44
2023-02-02T10:50:50.654Z,1009.46
2023-02-02T10:51:50.650Z,1009.5
2023-02-02T10:52:50.657Z,1009.51
2023-02-02T10:53:50.636Z,1009.49
2023-02-02T10:54:53.598Z,1009.51
2023-02-02T10:55:50.612Z,1009.54
2023-02-02T10:56:51.609Z,1009.51
2023-02-02T10:59:06.904Z,1009.52
2023-02-02T11:00:06.880Z,1009.5
2023-02-02T11:01:06.874Z,1009.55
2023-02-02T11:02:14.458Z,1009.53
2023-02-02T11:04:13.380Z,1009.56
2023-02-02T11:07:13.453Z,1009.62
2023-02-02T11:10:46.345Z,1009.58
2023-02-02T11:11:46.351Z,1009.57
2023-02-02T11:12:46.288Z,1009.57
2023-02-02T11:13:47.042Z,1009.61
2023-02-02T11:14:47.969Z,1009.64
2023-02-02T11:15:46.275Z,1009.62
2023-02-02T11:16:46.246Z,1009.68
2023-02-02T11:19:13.500Z,1009.69
2023-02-02T11:20:13.487Z,1009.58
2023-02-02T11:21:13.520Z,1009.58
2023-02-02T11:22:13.463Z,1009.55
2023-02-02T11:23:21.082Z,1009.68
2023-02-02T11:24:21.072Z,1009.67
2023-02-02T11:25:13.434Z,1009.72
2023-02-02T11:26:22.102Z,1009.6
2023-02-02T11:27:13.414Z,1009.68
2023-02-02T11:29:29.749Z,1009.67
2023-02-02T11:30:29.715Z,1009.67
2023-02-02T11:32:46.019Z,1009.71
2023-02-02T11:33:46.005Z,1009.66
2023-02-02T11:34:45.979Z,1009.72
2023-02-02T11:35:45.970Z,1009.59
2023-02-02T11:36:45.966Z,1009.73
2023-02-02T11:37:45.946Z,1009.69
2023-02-02T11:38:45.934Z,1009.69
2023-02-02T11:39:46.094Z,1009.64
2023-02-02T11:40:45.919Z,1009.68
2023-02-02T11:41:45.948Z,1009.68
2023-02-02T11:42:45.952Z,1009.69
2023-02-02T11:43:45.885Z,1009.71
2023-02-02T11:44:45.879Z,1009.65
2023-02-02T11:45:45.866Z,1009.66
2023-02-02T11:57:12.032Z,1009.89
2023-02-02T11:58:12.008Z,1009.85
2023-02-02T11:59:12.066Z,1009.9
2023-02-02T12:00:11.983Z,1009.91
2023-02-02T12:01:12.017Z,1009.88
2023-02-02T12:02:11.978Z,1009.86
2023-02-02T12:03:11.986Z,1009.88
2023-02-02T12:04:11.945Z,1009.85
2023-02-02T12:05:11.958Z,1009.85
2023-02-02T12:06:11.916Z,1009.8
2023-02-02T12:07:11.914Z,1009.87
2023-02-02T12:08:11.901Z,1009.83
2023-02-02T12:17:06.075Z,1009.9
2023-02-02T12:18:06.101Z,1009.83
2023-02-02T12:19:07.052Z,1009.85
2023-02-02T12:20:06.075Z,1009.9
2023-02-02T12:21:06.021Z,1009.85
2023-02-02T12:22:06.042Z,1009.78
2023-02-02T12:23:05.991Z,1009.86
2023-02-02T12:24:06.010Z,1009.82
2023-02-02T12:25:05.971Z,1009.86
2023-02-02T12:26:05.965Z,1009.8
2023-02-02T12:27:05.999Z,1009.85
2023-02-02T12:47:45.099Z,1009.85
2023-02-02T12:48:45.136Z,1009.87
2023-02-02T12:57:33.453Z,1009.87
2023-02-02T12:58:35.464Z,1009.82
2023-02-02T12:59:33.389Z,1009.88
2023-02-02T13:00:33.402Z,1009.89
2023-02-02T13:01:33.382Z,1009.88
2023-02-02T13:02:33.369Z,1009.85
2023-02-02T13:03:42.024Z,1009.87
2023-02-02T13:04:33.387Z,1009.83
2023-02-02T13:05:33.370Z,1009.88
2023-02-02T13:06:33.378Z,1009.89